createdAt,value
2022-12-18T00:00:20.582Z,91.64
2022-12-18T00:01:20.654Z,91.64
2022-12-18T00:02:20.588Z,91.65
2022-12-18T00:03:20.657Z,91.66
2022-12-18T00:04:20.589Z,91.70
2022-12-18T00:05:20.542Z,91.75
2022-12-18T00:06:20.520Z,91.79
2022-12-18T00:07:20.528Z,91.81
2022-12-18T00:08:20.495Z,91.85
2022-12-18T00:09:20.502Z,91.90
2022-12-18T00:10:20.473Z,91.96
2022-12-18T00:11:20.481Z,91.95
2022-12-18T00:12:20.485Z,91.92
2022-12-18T00:13:20.457Z,91.92
2022-12-18T00:14:20.430Z,91.94
2022-12-18T00:15:20.441Z,91.96
2022-12-18T00:16:20.447Z,91.93
2022-12-18T00:17:20.426Z,91.92
2022-12-18T00:18:20.668Z,91.90
2022-12-18T00:19:20.388Z,91.88
2022-12-18T00:20:20.361Z,91.86
2022-12-18T00:21:20.371Z,91.86
2022-12-18T00:22:20.345Z,91.87
2022-12-18T00:23:20.360Z,91.88
2022-12-18T00:24:20.313Z,91.87
2022-12-18T00:25:20.335Z,91.86
2022-12-18T00:26:20.298Z,91.83
2022-12-18T00:27:20.300Z,91.82
2022-12-18T00:28:20.293Z,91.82
2022-12-18T00:29:20.280Z,91.81
2022-12-18T00:30:20.253Z,91.80
2022-12-18T00:31:20.338Z,91.81
2022-12-18T00:32:20.249Z,91.80
2022-12-18T00:33:20.255Z,91.77
2022-12-18T00:34:20.216Z,91.74
2022-12-18T00:35:20.211Z,91.80
2022-12-18T00:36:20.195Z,91.86
2022-12-18T00:37:20.569Z,91.94
2022-12-18T00:38:20.190Z,91.95
2022-12-18T00:39:20.174Z,91.95
2022-12-18T00:40:20.167Z,91.94
2022-12-18T00:41:20.129Z,91.93
2022-12-18T00:42:20.161Z,91.94
2022-12-18T00:43:20.151Z,91.94
2022-12-18T00:44:20.120Z,91.95
2022-12-18T00:45:20.086Z,91.96
2022-12-18T00:46:20.154Z,91.96
2022-12-18T00:47:20.067Z,91.91
2022-12-18T00:48:20.091Z,91.88
2022-12-18T00:49:20.214Z,91.84
2022-12-18T00:50:20.057Z,91.82
2022-12-18T00:51:20.026Z,91.78
2022-12-18T00:52:20.026Z,91.75
2022-12-18T00:53:20.018Z,91.70
2022-12-18T00:54:20.014Z,91.69
2022-12-18T00:55:19.981Z,91.65
2022-12-18T00:56:19.986Z,91.60
2022-12-18T00:57:19.956Z,91.58
2022-12-18T00:58:19.978Z,91.55
2022-12-18T00:59:19.931Z,91.50
2022-12-18T01:00:19.932Z,91.46
2022-12-18T01:01:20.088Z,91.40
2022-12-18T01:02:20.036Z,91.32
2022-12-18T01:03:19.988Z,91.26
2022-12-18T01:04:19.912Z,91.23
2022-12-18T01:05:19.879Z,91.23
2022-12-18T01:06:19.896Z,91.26
2022-12-18T01:07:19.876Z,91.22
2022-12-18T01:08:19.892Z,91.21
2022-12-18T01:09:19.840Z,91.21
2022-12-18T01:10:19.847Z,91.17
2022-12-18T01:11:19.814Z,91.15
2022-12-18T01:12:19.840Z,91.08
2022-12-18T01:13:19.817Z,91.05
2022-12-18T01:14:19.801Z,91.05
2022-12-18T01:15:19.774Z,91.01
2022-12-18T01:16:19.793Z,90.98
2022-12-18T01:17:19.769Z,90.95
2022-12-18T01:18:19.794Z,90.98
2022-12-18T01:19:19.725Z,90.95
2022-12-18T01:20:19.746Z,90.89
2022-12-18T01:21:19.692Z,90.89
2022-12-18T01:22:19.705Z,90.92
2022-12-18T01:23:19.672Z,91.01
2022-12-18T01:24:19.703Z,91.13
2022-12-18T01:25:19.656Z,91.26
2022-12-18T01:26:19.664Z,91.35
2022-12-18T01:27:19.638Z,91.40
2022-12-18T01:28:19.633Z,91.47
2022-12-18T01:29:19.638Z,91.50
2022-12-18T01:30:19.612Z,91.50
2022-12-18T01:31:19.654Z,91.47
2022-12-18T01:32:19.590Z,91.51
2022-12-18T01:33:19.581Z,91.58
2022-12-18T01:34:19.580Z,91.56
2022-12-18T01:35:19.562Z,91.52
2022-12-18T01:36:19.542Z,91.46
2022-12-18T01:37:19.526Z,91.48
2022-12-18T01:38:19.530Z,91.45
2022-12-18T01:39:19.501Z,91.42
2022-12-18T01:40:19.509Z,91.41
2022-12-18T01:41:19.511Z,91.42
2022-12-18T01:42:19.494Z,91.41
2022-12-18T01:43:19.457Z,91.37
2022-12-18T01:44:19.473Z,91.37
2022-12-18T01:45:19.440Z,91.35
2022-12-18T01:46:19.529Z,91.25
2022-12-18T01:47:19.421Z,91.17
2022-12-18T01:48:19.419Z,91.09
2022-12-18T01:49:19.395Z,90.96
2022-12-18T01:50:19.393Z,90.82
2022-12-18T01:51:19.380Z,90.76
2022-12-18T01:52:19.381Z,90.75
2022-12-18T01:53:19.355Z,90.74
2022-12-18T01:54:19.359Z,90.72
2022-12-18T01:55:19.334Z,90.72
2022-12-18T01:56:19.357Z,90.75
2022-12-18T01:57:19.305Z,90.76
2022-12-18T01:58:19.311Z,90.78
2022-12-18T01:59:19.291Z,90.80
2022-12-18T02:00:19.291Z,90.84
2022-12-18T02:01:19.383Z,90.90
2022-12-18T02:02:19.351Z,90.97
2022-12-18T02:03:19.291Z,91.04
2022-12-18T02:04:19.247Z,91.12
2022-12-18T02:05:19.219Z,91.17
2022-12-18T02:06:19.240Z,91.16
2022-12-18T02:07:19.204Z,91.18
2022-12-18T02:08:19.206Z,91.22
2022-12-18T02:09:19.178Z,91.26
2022-12-18T02:10:19.177Z,91.24
2022-12-18T02:11:19.170Z,91.26
2022-12-18T02:12:19.158Z,91.28
2022-12-18T02:13:19.134Z,91.26
2022-12-18T02:14:19.136Z,91.21
2022-12-18T02:15:19.114Z,91.21
2022-12-18T02:16:19.189Z,91.22
2022-12-18T02:17:19.105Z,91.22
2022-12-18T02:18:19.092Z,91.16
2022-12-18T02:19:19.066Z,91.09
2022-12-18T02:20:19.091Z,91.03
2022-12-18T02:21:19.045Z,90.99
2022-12-18T02:22:19.070Z,90.98
2022-12-18T02:23:19.024Z,91.10
2022-12-18T02:24:19.027Z,91.16
2022-12-18T02:25:19.002Z,91.19
2022-12-18T02:26:19.008Z,91.20
2022-12-18T02:27:18.983Z,91.24
2022-12-18T02:28:19.008Z,91.26
2022-12-18T02:29:18.970Z,91.29
2022-12-18T02:30:18.974Z,91.25
2022-12-18T02:31:19.011Z,91.14
2022-12-18T02:32:18.944Z,91.05
2022-12-18T02:33:18.918Z,90.98
2022-12-18T02:34:18.933Z,90.86
2022-12-18T02:35:18.893Z,90.78
2022-12-18T02:36:18.896Z,90.70
2022-12-18T02:37:18.877Z,90.60
2022-12-18T02:38:18.886Z,90.54
2022-12-18T02:39:18.862Z,90.52
2022-12-18T02:40:18.852Z,90.51
2022-12-18T02:41:18.832Z,90.52
2022-12-18T02:42:18.823Z,90.52
2022-12-18T02:43:18.815Z,90.51
2022-12-18T02:44:18.833Z,90.43
2022-12-18T02:45:18.790Z,90.39
2022-12-18T02:46:18.831Z,90.39
2022-12-18T02:47:18.766Z,90.38
2022-12-18T02:48:18.774Z,90.30
2022-12-18T02:49:18.765Z,90.24
2022-12-18T02:50:18.747Z,90.23
2022-12-18T02:51:18.717Z,90.20
2022-12-18T02:52:18.725Z,90.17
2022-12-18T02:53:18.700Z,90.16
2022-12-18T02:54:18.705Z,90.14
2022-12-18T02:55:18.691Z,90.15
2022-12-18T02:56:18.680Z,90.18
2022-12-18T02:57:18.654Z,90.23
2022-12-18T02:58:18.664Z,90.20
2022-12-18T02:59:18.632Z,90.17
2022-12-18T03:00:18.650Z,90.14
2022-12-18T03:01:18.755Z,90.14
2022-12-18T03:02:18.832Z,90.18
2022-12-18T03:03:18.670Z,90.19
2022-12-18T03:04:18.605Z,90.17
2022-12-18T03:05:18.572Z,90.14
2022-12-18T03:06:18.585Z,90.13
2022-12-18T03:07:18.547Z,90.12
2022-12-18T03:08:18.550Z,90.12
2022-12-18T03:09:18.525Z,90.09
2022-12-18T03:10:18.533Z,90.05
2022-12-18T03:11:18.521Z,90.03
2022-12-18T03:12:18.514Z,90.00
2022-12-18T03:13:18.480Z,89.97
2022-12-18T03:14:18.480Z,89.95
2022-12-18T03:15:18.460Z,89.93
2022-12-18T03:16:18.519Z,89.94
2022-12-18T03:17:18.441Z,89.96
2022-12-18T03:18:18.446Z,89.99
2022-12-18T03:19:18.415Z,90.05
2022-12-18T03:20:18.419Z,90.14
2022-12-18T03:21:18.400Z,90.18
2022-12-18T03:22:18.413Z,90.20
2022-12-18T03:23:18.376Z,90.27
2022-12-18T03:24:18.382Z,90.29
2022-12-18T03:25:18.360Z,90.32
2022-12-18T03:26:18.358Z,90.32
2022-12-18T03:27:18.340Z,90.34
2022-12-18T03:28:18.340Z,90.34
2022-12-18T03:29:18.308Z,90.33
2022-12-18T03:30:18.307Z,90.32
2022-12-18T03:31:18.332Z,90.29
2022-12-18T03:32:18.313Z,90.30
2022-12-18T03:33:18.268Z,90.30
2022-12-18T03:34:18.298Z,90.34
2022-12-18T03:35:18.244Z,90.31
2022-12-18T03:36:18.250Z,90.34
2022-12-18T03:37:18.238Z,90.36
2022-12-18T03:38:18.227Z,90.37
2022-12-18T03:39:18.194Z,90.39
2022-12-18T03:40:18.204Z,90.47
2022-12-18T03:41:18.178Z,90.54
2022-12-18T03:42:18.199Z,90.56
2022-12-18T03:43:18.171Z,90.57
2022-12-18T03:44:18.166Z,90.57
2022-12-18T03:45:18.138Z,90.56
2022-12-18T03:46:18.180Z,90.54
2022-12-18T03:47:18.117Z,90.53
2022-12-18T03:48:18.122Z,90.52
2022-12-18T03:49:18.112Z,90.53
2022-12-18T03:50:18.096Z,90.56
2022-12-18T03:51:18.069Z,90.60
2022-12-18T03:52:18.078Z,90.63
2022-12-18T03:53:18.054Z,90.71
2022-12-18T03:54:18.068Z,90.80
2022-12-18T03:55:18.043Z,90.87
2022-12-18T03:56:18.028Z,90.90
2022-12-18T03:57:18.009Z,90.93
2022-12-18T03:58:18.006Z,90.93
2022-12-18T03:59:17.988Z,90.94
2022-12-18T04:00:18.006Z,90.95
2022-12-18T04:01:18.042Z,90.98
2022-12-18T04:02:18.123Z,90.96
2022-12-18T04:03:17.983Z,90.88
2022-12-18T04:04:18.099Z,90.78
2022-12-18T04:05:17.934Z,90.68
2022-12-18T04:06:17.923Z,90.61
2022-12-18T04:07:17.893Z,90.53
2022-12-18T04:08:17.910Z,90.44
2022-12-18T04:09:17.884Z,90.37
2022-12-18T04:10:17.890Z,90.27
2022-12-18T04:11:17.856Z,90.20
2022-12-18T04:12:17.865Z,90.14
2022-12-18T04:13:17.826Z,90.11
2022-12-18T04:14:18.609Z,90.04
2022-12-18T04:15:17.819Z,90.02
2022-12-18T04:16:17.869Z,90.02
2022-12-18T04:17:17.789Z,90.00
2022-12-18T04:18:17.795Z,89.99
2022-12-18T04:19:17.846Z,90.02
2022-12-18T04:20:17.782Z,90.05
2022-12-18T04:21:17.732Z,90.11
2022-12-18T04:22:17.739Z,90.16
2022-12-18T04:23:17.715Z,90.23
2022-12-18T04:24:17.765Z,90.30
2022-12-18T04:25:17.717Z,90.36
2022-12-18T04:26:17.710Z,90.47
2022-12-18T04:27:17.686Z,90.58
2022-12-18T04:28:17.681Z,90.70
2022-12-18T04:29:17.693Z,90.82
2022-12-18T04:30:17.661Z,90.96
2022-12-18T04:31:17.688Z,91.03
2022-12-18T04:32:17.640Z,91.10
2022-12-18T04:33:17.624Z,91.11
2022-12-18T04:34:17.682Z,91.11
2022-12-18T04:35:17.585Z,91.11
2022-12-18T04:36:17.602Z,91.13
2022-12-18T04:37:17.584Z,91.14
2022-12-18T04:38:17.580Z,91.16
2022-12-18T04:39:17.639Z,91.18
2022-12-18T04:40:17.552Z,91.13
2022-12-18T04:41:17.518Z,91.13
2022-12-18T04:42:17.542Z,91.11
2022-12-18T04:43:17.537Z,91.08
2022-12-18T04:44:17.600Z,91.05
2022-12-18T04:45:17.488Z,90.98
2022-12-18T04:46:17.525Z,90.94
2022-12-18T04:47:17.479Z,90.97
2022-12-18T04:48:17.459Z,91.01
2022-12-18T04:49:17.510Z,91.06
2022-12-18T04:50:17.441Z,91.06
2022-12-18T04:51:19.878Z,91.08
2022-12-18T04:52:18.449Z,91.08
2022-12-18T04:53:17.395Z,91.08
2022-12-18T04:54:17.510Z,91.05
2022-12-18T04:55:17.376Z,91.03
2022-12-18T04:56:17.369Z,91.03
2022-12-18T04:57:17.381Z,91.06
2022-12-18T04:58:17.359Z,91.12
2022-12-18T04:59:17.351Z,91.20
2022-12-18T05:00:17.321Z,91.28
2022-12-18T05:01:17.516Z,91.29
2022-12-18T05:02:17.376Z,91.29
2022-12-18T05:03:17.336Z,91.26
2022-12-18T05:04:17.434Z,91.21
2022-12-18T05:05:17.287Z,91.18
2022-12-18T05:06:17.250Z,91.13
2022-12-18T05:07:17.269Z,91.09
2022-12-18T05:08:17.234Z,91.12
2022-12-18T05:09:17.342Z,91.16
2022-12-18T05:10:17.207Z,91.21
2022-12-18T05:11:17.216Z,91.26
2022-12-18T05:12:17.189Z,91.27
2022-12-18T05:13:17.215Z,91.30
2022-12-18T05:14:17.177Z,91.32
2022-12-18T05:15:17.175Z,91.32
2022-12-18T05:16:17.310Z,91.33
2022-12-18T05:17:17.145Z,91.39
2022-12-18T05:18:17.127Z,91.40
2022-12-18T05:19:17.145Z,91.39
2022-12-18T05:20:17.104Z,91.30
2022-12-18T05:21:17.106Z,91.15
2022-12-18T05:22:17.091Z,91.08
2022-12-18T05:23:17.085Z,90.94
2022-12-18T05:24:17.056Z,90.83
2022-12-18T05:25:17.077Z,90.68
2022-12-18T05:26:17.037Z,90.55
2022-12-18T05:27:17.038Z,90.46
2022-12-18T05:28:17.021Z,90.33
2022-12-18T05:29:17.027Z,90.24
2022-12-18T05:30:17.009Z,90.11
2022-12-18T05:31:17.077Z,90.09
2022-12-18T05:32:16.967Z,90.07
2022-12-18T05:33:16.978Z,90.05
2022-12-18T05:34:16.955Z,89.97
2022-12-18T05:35:16.982Z,89.88
2022-12-18T05:36:16.941Z,89.81
2022-12-18T05:37:16.934Z,89.75
2022-12-18T05:38:16.912Z,89.67
2022-12-18T05:39:16.916Z,89.60
2022-12-18T05:40:16.900Z,89.52
2022-12-18T05:41:16.895Z,89.50
2022-12-18T05:42:16.870Z,89.46
2022-12-18T05:43:21.111Z,89.48
2022-12-18T05:44:16.838Z,89.57
2022-12-18T05:45:16.851Z,89.71
2022-12-18T05:46:16.876Z,89.80
2022-12-18T05:47:16.823Z,89.89
2022-12-18T05:48:16.798Z,90.01
2022-12-18T05:49:16.798Z,90.11
2022-12-18T05:50:16.772Z,90.22
2022-12-18T05:51:16.785Z,90.31
2022-12-18T05:52:16.773Z,90.39
2022-12-18T05:53:16.760Z,90.43
2022-12-18T05:54:16.734Z,90.48
2022-12-18T05:55:16.738Z,90.55
2022-12-18T05:56:16.712Z,90.63
2022-12-18T05:57:16.733Z,90.65
2022-12-18T05:58:16.692Z,90.59
2022-12-18T05:59:16.691Z,90.56
2022-12-18T06:00:16.671Z,90.50
2022-12-18T06:01:16.774Z,90.43
2022-12-18T06:02:16.737Z,90.35
2022-12-18T06:03:16.806Z,90.27
2022-12-18T06:04:16.668Z,90.21
2022-12-18T06:05:16.633Z,90.17
2022-12-18T06:06:16.601Z,90.16
2022-12-18T06:07:16.606Z,90.16
2022-12-18T06:08:16.595Z,90.20
2022-12-18T06:09:16.589Z,90.26
2022-12-18T06:10:16.553Z,90.29
2022-12-18T06:11:16.559Z,90.37
2022-12-18T06:12:16.551Z,90.46
2022-12-18T06:13:16.560Z,90.57
2022-12-18T06:14:16.511Z,90.65
2022-12-18T06:15:16.519Z,90.76
2022-12-18T06:16:16.544Z,90.82
2022-12-18T06:17:16.507Z,90.86
2022-12-18T06:18:16.489Z,90.92
2022-12-18T06:19:16.479Z,90.96
2022-12-18T06:20:16.457Z,90.99
2022-12-18T06:21:16.447Z,91.02
2022-12-18T06:22:16.435Z,91.05
2022-12-18T06:23:16.447Z,91.07
2022-12-18T06:24:16.410Z,91.10
2022-12-18T06:25:16.415Z,91.12
2022-12-18T06:26:16.383Z,91.14
2022-12-18T06:27:16.398Z,91.12
2022-12-18T06:28:16.376Z,91.05
2022-12-18T06:29:16.370Z,91.00
2022-12-18T06:30:16.348Z,90.98
2022-12-18T06:31:16.384Z,90.96
2022-12-18T06:32:16.325Z,90.97
2022-12-18T06:33:16.338Z,90.99
2022-12-18T06:34:16.297Z,91.01
2022-12-18T06:35:16.298Z,90.98
2022-12-18T06:36:16.278Z,90.96
2022-12-18T06:37:16.286Z,90.92
2022-12-18T06:38:16.278Z,90.87
2022-12-18T06:39:16.274Z,90.82
2022-12-18T06:40:16.228Z,90.79
2022-12-18T06:41:16.241Z,90.79
2022-12-18T06:42:16.205Z,90.76
2022-12-18T06:43:16.222Z,90.74
2022-12-18T06:44:16.198Z,90.71
2022-12-18T06:45:16.201Z,90.69
2022-12-18T06:46:16.214Z,90.65
2022-12-18T06:47:16.171Z,90.64
2022-12-18T06:48:16.161Z,90.60
2022-12-18T06:49:16.150Z,90.54
2022-12-18T06:50:16.128Z,90.49
2022-12-18T06:51:16.126Z,90.40
2022-12-18T06:52:16.098Z,90.35
2022-12-18T06:53:16.122Z,90.37
2022-12-18T06:54:16.075Z,90.38
2022-12-18T06:55:16.092Z,90.36
2022-12-18T06:56:16.058Z,90.34
2022-12-18T06:57:16.065Z,90.30
2022-12-18T06:58:16.063Z,90.32
2022-12-18T06:59:16.061Z,90.30
2022-12-18T07:00:16.026Z,90.27
2022-12-18T07:01:16.140Z,90.22
2022-12-18T07:02:16.097Z,90.13
2022-12-18T07:03:16.040Z,90.01
2022-12-18T07:04:15.970Z,89.89
2022-12-18T07:05:15.983Z,89.82
2022-12-18T07:06:15.956Z,89.74
2022-12-18T07:07:15.965Z,89.68
2022-12-18T07:08:15.942Z,89.64
2022-12-18T07:09:15.988Z,89.58
2022-12-18T07:10:15.908Z,89.56
2022-12-18T07:11:15.918Z,89.58
2022-12-18T07:12:15.889Z,89.62
2022-12-18T07:13:15.903Z,89.66
2022-12-18T07:14:15.863Z,89.65
2022-12-18T07:15:15.893Z,89.72
2022-12-18T07:16:22.313Z,89.76
2022-12-18T07:17:16.853Z,89.78
2022-12-18T07:18:15.831Z,89.76
2022-12-18T07:19:15.822Z,89.75
2022-12-18T07:20:15.801Z,89.73
2022-12-18T07:21:15.822Z,89.73
2022-12-18T07:22:15.782Z,89.76
2022-12-18T07:23:15.789Z,89.81
2022-12-18T07:24:15.758Z,89.90
2022-12-18T07:25:15.762Z,90.00
2022-12-18T07:26:15.750Z,90.07
2022-12-18T07:27:15.738Z,90.15
2022-12-18T07:28:17.521Z,90.17
2022-12-18T07:29:15.729Z,90.21
2022-12-18T07:30:15.692Z,90.17
2022-12-18T07:31:15.805Z,90.10
2022-12-18T07:32:15.673Z,90.07
2022-12-18T07:33:15.670Z,90.08
2022-12-18T07:34:15.649Z,90.08
2022-12-18T07:35:17.439Z,90.08
2022-12-18T07:36:16.636Z,90.00
2022-12-18T07:37:15.630Z,89.98
2022-12-18T07:38:15.607Z,89.95
2022-12-18T07:39:15.605Z,89.91
2022-12-18T07:40:15.582Z,89.87
2022-12-18T07:41:15.607Z,89.87
2022-12-18T07:42:15.560Z,89.88
2022-12-18T07:43:15.569Z,89.96
2022-12-18T07:44:15.554Z,90.13
2022-12-18T07:45:15.552Z,90.24
2022-12-18T07:46:15.602Z,90.31
2022-12-18T07:47:15.520Z,90.38
2022-12-18T07:48:15.502Z,90.44
2022-12-18T07:49:15.502Z,90.50
2022-12-18T07:50:15.480Z,90.49
2022-12-18T07:51:15.480Z,90.46
2022-12-18T07:52:15.492Z,90.45
2022-12-18T07:53:15.445Z,90.40
2022-12-18T07:54:15.452Z,90.34
2022-12-18T07:55:15.438Z,90.21
2022-12-18T07:56:27.166Z,90.15
2022-12-18T07:57:41.342Z,90.09
2022-12-18T07:58:16.388Z,90.08
2022-12-18T07:59:15.396Z,90.04
2022-12-18T08:00:15.371Z,89.94
2022-12-18T08:01:15.496Z,89.87
2022-12-18T08:02:15.477Z,89.75
2022-12-18T08:03:15.424Z,89.67
2022-12-18T08:04:15.335Z,89.57
2022-12-18T08:05:15.339Z,89.44
2022-12-18T08:06:15.303Z,89.35
2022-12-18T08:07:15.321Z,89.22
2022-12-18T08:08:15.284Z,89.09
2022-12-18T08:09:15.287Z,88.88
2022-12-18T08:10:15.257Z,88.62
2022-12-18T08:11:15.272Z,88.39
2022-12-18T08:12:15.242Z,88.26
2022-12-18T08:13:15.236Z,88.09
2022-12-18T08:14:15.234Z,88.03
2022-12-18T08:15:15.211Z,88.03
2022-12-18T08:16:15.271Z,88.03
2022-12-18T08:17:15.192Z,88.06
2022-12-18T08:18:15.173Z,88.11
2022-12-18T08:19:15.176Z,88.20
2022-12-18T08:20:15.161Z,88.20
2022-12-18T08:21:15.141Z,87.99
2022-12-18T08:22:15.132Z,87.51
2022-12-18T08:23:15.126Z,87.14
2022-12-18T08:24:15.115Z,86.86
2022-12-18T08:25:15.114Z,86.75
2022-12-18T08:26:15.082Z,86.53
2022-12-18T08:27:30.629Z,86.33
2022-12-18T08:28:16.061Z,86.13
2022-12-18T08:29:19.964Z,85.98
2022-12-18T08:30:16.038Z,85.76
2022-12-18T08:31:15.093Z,85.47
2022-12-18T08:32:15.083Z,85.27
2022-12-18T08:33:15.044Z,84.94
2022-12-18T08:34:15.006Z,84.30
2022-12-18T08:35:18.605Z,83.96
2022-12-18T08:36:14.969Z,83.79
2022-12-18T08:37:14.974Z,83.60
2022-12-18T08:38:14.943Z,83.52
2022-12-18T08:39:14.946Z,83.54
2022-12-18T08:40:14.942Z,83.74
2022-12-18T08:41:14.935Z,83.75
2022-12-18T08:42:14.905Z,83.82
2022-12-18T08:43:14.921Z,84.12
2022-12-18T08:44:14.890Z,84.44
2022-12-18T08:45:14.884Z,84.43
2022-12-18T08:46:14.919Z,84.52
2022-12-18T08:47:14.868Z,84.43
2022-12-18T08:48:20.595Z,84.47
2022-12-18T08:49:15.848Z,84.37
2022-12-18T08:50:14.826Z,84.48
2022-12-18T08:51:14.843Z,84.35
2022-12-18T08:52:14.799Z,84.08
2022-12-18T08:53:14.803Z,84.20
2022-12-18T08:54:14.799Z,84.30
2022-12-18T08:55:14.783Z,84.36
2022-12-18T08:56:14.759Z,84.47
2022-12-18T08:57:14.786Z,84.67
2022-12-18T08:58:14.734Z,84.63
2022-12-18T08:59:19.458Z,84.76
2022-12-18T09:00:15.706Z,84.70
2022-12-18T09:01:14.913Z,84.78
2022-12-18T09:02:14.817Z,84.89
2022-12-18T09:03:14.746Z,84.78
2022-12-18T09:04:14.660Z,84.63
2022-12-18T09:05:14.670Z,84.47
2022-12-18T09:06:14.637Z,84.40
2022-12-18T09:07:14.644Z,84.40
2022-12-18T09:08:14.625Z,84.52
2022-12-18T09:09:14.655Z,84.47
2022-12-18T09:10:14.606Z,84.54
2022-12-18T09:11:14.609Z,84.79
2022-12-18T09:12:14.608Z,85.10
2022-12-18T09:13:14.598Z,85.37
2022-12-18T09:14:14.598Z,85.46
2022-12-18T09:15:14.569Z,85.64
2022-12-18T09:16:14.599Z,85.84
2022-12-18T09:17:14.566Z,86.13
2022-12-18T09:18:14.528Z,86.29
2022-12-18T09:19:14.500Z,86.34
2022-12-18T09:20:14.518Z,86.31
2022-12-18T09:21:14.480Z,86.28
2022-12-18T09:22:14.485Z,86.15
2022-12-18T09:23:14.458Z,86.11
2022-12-18T09:24:14.452Z,86.10
2022-12-18T09:25:14.465Z,86.00
2022-12-18T09:26:14.442Z,86.01
2022-12-18T09:27:14.440Z,86.15
2022-12-18T09:28:14.426Z,86.41
2022-12-18T09:29:14.398Z,86.64
2022-12-18T09:30:14.421Z,86.63
2022-12-18T09:31:14.432Z,86.63
2022-12-18T09:32:18.931Z,86.69
2022-12-18T09:33:15.358Z,86.65
2022-12-18T09:34:14.353Z,86.54
2022-12-18T09:35:14.323Z,86.42
2022-12-18T09:36:14.338Z,86.40
2022-12-18T09:37:14.299Z,86.49
2022-12-18T09:38:14.311Z,86.54
2022-12-18T09:39:14.285Z,86.66
2022-12-18T09:40:14.275Z,86.77
2022-12-18T09:41:14.284Z,86.89
2022-12-18T09:42:14.277Z,87.05
2022-12-18T09:43:14.248Z,87.19
2022-12-18T09:44:14.329Z,87.21
2022-12-18T09:45:14.297Z,87.17
2022-12-18T09:46:14.263Z,87.21
2022-12-18T09:47:14.207Z,87.19
2022-12-18T09:48:14.202Z,87.20
2022-12-18T09:49:14.176Z,87.16
2022-12-18T09:50:17.320Z,87.17
2022-12-18T09:51:14.146Z,87.23
2022-12-18T09:52:14.150Z,87.31
2022-12-18T09:53:14.137Z,87.42
2022-12-18T09:54:14.137Z,87.52
2022-12-18T09:55:14.108Z,87.68
2022-12-18T09:56:14.134Z,87.79
2022-12-18T09:57:14.083Z,87.96
2022-12-18T09:58:14.097Z,88.03
2022-12-18T09:59:14.061Z,88.10
2022-12-18T10:00:14.056Z,88.14
2022-12-18T10:01:14.078Z,88.07
2022-12-18T10:02:14.100Z,88.10
2022-12-18T10:03:14.144Z,88.03
2022-12-18T10:04:14.074Z,88.02
2022-12-18T10:05:14.005Z,87.93
2022-12-18T10:06:14.004Z,87.77
2022-12-18T10:07:13.965Z,87.75
2022-12-18T10:08:13.998Z,87.79
2022-12-18T10:09:13.944Z,87.86
2022-12-18T10:10:13.954Z,87.92
2022-12-18T10:11:13.926Z,87.87
2022-12-18T10:12:13.928Z,87.74
2022-12-18T10:13:13.915Z,87.64
2022-12-18T10:14:13.924Z,87.65
2022-12-18T10:15:13.884Z,87.64
2022-12-18T10:16:13.928Z,87.49
2022-12-18T10:17:13.898Z,87.33
2022-12-18T10:18:17.359Z,87.31
2022-12-18T10:19:14.865Z,87.35
2022-12-18T10:20:13.845Z,87.29
2022-12-18T10:21:13.815Z,87.03
2022-12-18T10:22:13.826Z,87.06
2022-12-18T10:23:13.795Z,87.13
2022-12-18T10:24:13.813Z,87.15
2022-12-18T10:25:13.768Z,87.17
2022-12-18T10:26:13.776Z,87.06
2022-12-18T10:27:13.744Z,87.05
2022-12-18T10:28:13.754Z,87.11
2022-12-18T10:29:13.734Z,87.19
2022-12-18T10:30:13.815Z,87.30
2022-12-18T10:31:13.705Z,87.27
2022-12-18T10:32:13.715Z,87.56
2022-12-18T10:33:13.678Z,88.24
2022-12-18T10:34:13.692Z,88.43
2022-12-18T10:35:13.665Z,88.05
2022-12-18T10:36:13.706Z,87.65
2022-12-18T10:37:13.643Z,87.19
2022-12-18T10:38:13.648Z,86.90
2022-12-18T10:39:13.621Z,86.78
2022-12-18T10:40:19.868Z,86.45
2022-12-18T10:41:14.618Z,86.50
2022-12-18T10:42:13.604Z,86.67
2022-12-18T10:43:13.573Z,86.86
2022-12-18T10:44:13.582Z,86.66
2022-12-18T10:45:13.556Z,86.53
2022-12-18T10:46:13.707Z,86.42
2022-12-18T10:47:13.538Z,86.35
2022-12-18T10:48:13.532Z,86.30
2022-12-18T10:49:13.528Z,86.34
2022-12-18T10:50:13.539Z,86.51
2022-12-18T10:51:13.846Z,86.47
2022-12-18T10:52:13.511Z,86.33
2022-12-18T10:53:13.466Z,86.26
2022-12-18T10:54:13.474Z,86.30
2022-12-18T10:55:13.442Z,86.14
2022-12-18T10:56:13.451Z,86.06
2022-12-18T10:57:13.444Z,86.26
2022-12-18T10:58:13.432Z,86.28
2022-12-18T10:59:13.402Z,86.12
2022-12-18T11:00:13.413Z,85.99
2022-12-18T11:01:13.424Z,85.92
2022-12-18T11:02:13.533Z,85.93
2022-12-18T11:03:13.510Z,85.81
2022-12-18T11:04:13.348Z,85.86
2022-12-18T11:05:13.345Z,85.80
2022-12-18T11:06:13.340Z,85.64
2022-12-18T11:07:13.327Z,85.66
2022-12-18T11:08:13.317Z,85.58
2022-12-18T11:09:15.546Z,85.70
2022-12-18T11:10:13.299Z,85.81
2022-12-18T11:11:13.263Z,85.70
2022-12-18T11:12:13.295Z,85.47
2022-12-18T11:13:13.243Z,85.22
2022-12-18T11:14:13.246Z,85.31
2022-12-18T11:15:13.221Z,85.31
2022-12-18T11:16:13.300Z,85.32
2022-12-18T11:17:28.448Z,85.12
2022-12-18T11:18:14.220Z,85.02
2022-12-18T11:19:13.181Z,85.01
2022-12-18T11:20:13.180Z,85.14
2022-12-18T11:21:13.148Z,84.88
2022-12-18T11:22:13.154Z,84.68
2022-12-18T11:23:13.155Z,84.75
2022-12-18T11:24:13.139Z,84.61
2022-12-18T11:26:14.115Z,84.55
2022-12-18T11:27:13.078Z,84.63
2022-12-18T11:28:13.110Z,84.53
2022-12-18T11:29:13.070Z,84.61
2022-12-18T11:30:13.071Z,84.68
2022-12-18T11:31:13.089Z,84.53
2022-12-18T11:32:13.057Z,84.66
2022-12-18T11:33:13.017Z,84.62
2022-12-18T11:34:28.696Z,84.71
2022-12-18T11:35:14.006Z,84.78
2022-12-18T11:36:13.008Z,84.54
2022-12-18T11:37:12.994Z,84.52
2022-12-18T11:38:12.986Z,84.42
2022-12-18T11:39:12.953Z,84.44
2022-12-18T11:40:12.988Z,84.56
2022-12-18T11:41:13.009Z,84.49
2022-12-18T11:42:13.217Z,84.42
2022-12-18T11:43:12.919Z,84.35
2022-12-18T11:44:12.926Z,84.47
2022-12-18T11:45:12.901Z,84.61
2022-12-18T11:46:19.117Z,84.56
2022-12-18T11:47:13.857Z,84.45
2022-12-18T11:48:12.872Z,84.39
2022-12-18T11:49:12.847Z,84.50
2022-12-18T11:50:12.887Z,84.36
2022-12-18T11:51:12.820Z,84.35
2022-12-18T11:52:12.839Z,84.51
2022-12-18T11:53:12.802Z,84.41
2022-12-18T11:54:12.809Z,84.25
2022-12-18T11:55:12.781Z,84.21
2022-12-18T11:56:12.806Z,84.10
2022-12-18T11:57:12.820Z,84.15
2022-12-18T11:58:12.765Z,84.41
2022-12-18T11:59:12.735Z,84.39
2022-12-18T12:00:12.757Z,84.09
2022-12-18T12:01:12.747Z,84.01
2022-12-18T12:02:12.759Z,84.02
2022-12-18T12:03:12.718Z,84.08
2022-12-18T12:04:12.748Z,84.08
2022-12-18T12:05:12.671Z,84.13
2022-12-18T12:06:12.670Z,84.07
2022-12-18T12:07:12.666Z,83.96
2022-12-18T12:08:12.667Z,84.05
2022-12-18T12:09:12.626Z,83.87
2022-12-18T12:10:12.631Z,83.80
2022-12-18T12:11:12.605Z,83.88
2022-12-18T12:12:12.616Z,83.99
2022-12-18T12:13:12.579Z,84.14
2022-12-18T12:14:12.587Z,84.24
2022-12-18T12:15:12.554Z,84.28
2022-12-18T12:16:12.602Z,84.31
2022-12-18T12:17:12.553Z,84.17
2022-12-18T12:18:12.553Z,83.79
2022-12-18T12:19:12.532Z,83.64
2022-12-18T12:20:12.517Z,83.78
2022-12-18T12:21:12.487Z,83.79
2022-12-18T12:22:12.515Z,83.74
2022-12-18T12:23:12.521Z,83.71
2022-12-18T12:24:12.469Z,83.67
2022-12-18T12:25:12.444Z,83.75
2022-12-18T12:26:12.470Z,83.80
2022-12-18T12:27:12.421Z,83.85
2022-12-18T12:28:12.441Z,83.99
2022-12-18T12:29:14.412Z,83.94
2022-12-18T12:30:13.479Z,83.76
2022-12-18T12:31:12.438Z,83.47
2022-12-18T12:32:12.389Z,83.32
2022-12-18T12:33:12.376Z,83.40
2022-12-18T12:34:12.444Z,83.50
2022-12-18T12:35:12.339Z,83.52
2022-12-18T12:36:12.351Z,83.35
2022-12-18T12:37:12.328Z,83.08
2022-12-18T12:38:12.345Z,83.10
2022-12-18T12:39:12.321Z,83.15
2022-12-18T12:40:48.289Z,83.20
2022-12-18T12:41:13.278Z,83.25
2022-12-18T12:42:12.282Z,83.15
2022-12-18T12:43:12.246Z,83.00
2022-12-18T12:44:12.273Z,83.01
2022-12-18T12:45:12.222Z,82.87
2022-12-18T12:46:12.278Z,82.69
2022-12-18T12:47:12.205Z,82.56
2022-12-18T12:48:12.209Z,82.61
2022-12-18T12:49:12.223Z,82.69
2022-12-18T12:50:12.210Z,82.83
2022-12-18T12:51:12.193Z,82.76
2022-12-18T12:52:12.221Z,82.50
2022-12-18T12:53:12.142Z,82.33